createdAt,value
2017-07-01T00:00:11.751Z,72.51
2017-07-01T00:02:40.051Z,72.86
2017-07-01T00:05:06.908Z,71.98
2017-07-01T00:07:34.307Z,73.71
2017-07-01T00:10:02.035Z,72.00
2017-07-01T00:12:30.491Z,74.09
2017-07-01T00:14:57.401Z,73.40
2017-07-01T00:17:24.481Z,73.78
2017-07-01T00:19:52.222Z,72.88
2017-07-01T00:22:18.998Z,73.52
2017-07-01T00:24:45.424Z,73.22
2017-07-01T00:27:11.801Z,74.73
2017-07-01T00:29:38.151Z,73.13
2017-07-01T00:32:04.516Z,72.42
2017-07-01T00:34:30.874Z,73.19
2017-07-01T00:36:57.276Z,74.33
2017-07-01T00:39:23.677Z,73.45
2017-07-01T00:41:50.036Z,73.07
2017-07-01T00:44:16.684Z,73.28
2017-07-01T00:46:43.094Z,75.52
2017-07-01T00:49:09.455Z,75.89
2017-07-01T00:51:35.857Z,75.80
2017-07-01T00:54:02.310Z,73.54
2017-07-01T00:56:28.690Z,73.27
2017-07-01T00:58:55.047Z,74.45
2017-07-01T01:01:21.484Z,73.90
2017-07-01T01:03:48.508Z,76.47
2017-07-01T01:06:14.923Z,76.32
2017-07-01T01:08:41.351Z,74.14
2017-07-01T01:11:08.283Z,73.91
2017-07-01T01:13:34.701Z,73.79
2017-07-01T01:16:01.099Z,73.56
2017-07-01T01:18:27.498Z,73.53
2017-07-01T01:20:53.887Z,74.50
2017-07-01T01:23:20.324Z,74.24
2017-07-01T01:25:46.759Z,75.02
2017-07-01T01:28:13.162Z,73.96
2017-07-01T01:30:39.584Z,74.49
2017-07-01T01:33:06.025Z,75.28
2017-07-01T01:35:32.678Z,73.93
2017-07-01T01:37:59.078Z,75.66
2017-07-01T01:40:25.496Z,73.60
2017-07-01T01:42:51.917Z,74.81
2017-07-01T01:45:18.348Z,75.23
2017-07-01T01:47:44.926Z,74.44
2017-07-01T01:50:14.764Z,75.27
2017-07-01T01:52:44.941Z,75.20
2017-07-01T01:55:15.726Z,76.38
2017-07-01T01:57:43.432Z,75.46
2017-07-01T02:00:09.877Z,74.31
2017-07-01T02:02:36.288Z,74.50
2017-07-01T02:05:02.701Z,74.63
2017-07-01T02:07:29.108Z,76.49
2017-07-01T02:09:55.540Z,75.62
2017-07-01T02:12:21.977Z,76.61
2017-07-01T02:15:09.125Z,74.80
2017-07-01T02:17:41.646Z,76.69
2017-07-01T02:20:20.758Z,74.91
2017-07-01T02:22:47.139Z,75.36
2017-07-01T02:25:28.296Z,76.31
2017-07-01T02:27:54.732Z,76.51
2017-07-01T02:30:21.126Z,75.32
2017-07-01T02:33:09.404Z,75.34
2017-07-01T02:35:35.858Z,77.14
2017-07-01T02:38:02.266Z,77.66
2017-07-01T02:40:28.670Z,79.01
2017-07-01T02:42:55.055Z,79.81
2017-07-01T02:45:53.135Z,80.30
2017-07-01T02:48:23.282Z,79.19
2017-07-01T02:50:57.658Z,78.63
2017-07-01T02:53:24.936Z,79.35
2017-07-01T02:56:04.296Z,76.71
2017-07-01T02:58:33.718Z,76.90
2017-07-01T03:01:00.136Z,78.50
2017-07-01T03:03:26.546Z,77.51
2017-07-01T03:05:52.948Z,79.36
2017-07-01T03:08:19.374Z,77.73
2017-07-01T03:10:45.783Z,80.35
2017-07-01T03:13:12.190Z,77.80
2017-07-01T03:15:38.591Z,78.63
2017-07-01T03:18:05.012Z,79.43
2017-07-01T03:20:31.422Z,78.41
2017-07-01T03:23:16.706Z,78.49
2017-07-01T03:25:44.062Z,78.79
2017-07-01T03:28:10.468Z,78.41
2017-07-01T03:30:36.865Z,77.37
2017-07-01T03:33:03.318Z,77.30
2017-07-01T03:35:29.721Z,78.50
2017-07-01T03:38:01.966Z,77.74
2017-07-01T03:40:40.562Z,77.10
2017-07-01T03:43:15.036Z,77.89
2017-07-01T03:45:42.259Z,77.03
2017-07-01T03:48:08.686Z,77.77
2017-07-01T03:50:35.094Z,78.42
2017-07-01T03:53:03.114Z,77.92
2017-07-01T03:55:29.534Z,77.42
2017-07-01T03:57:55.939Z,76.67
2017-07-01T04:00:37.223Z,77.85
2017-07-01T04:03:03.618Z,79.36
2017-07-01T04:05:30.352Z,77.72
2017-07-01T04:07:56.788Z,78.36
2017-07-01T04:10:24.080Z,79.40
2017-07-01T04:12:50.498Z,78.09
2017-07-01T04:15:16.907Z,79.22
2017-07-01T04:17:43.328Z,81.00
2017-07-01T04:20:11.603Z,79.38
2017-07-01T04:22:53.715Z,78.61
2017-07-01T04:25:20.165Z,78.81
2017-07-01T04:27:46.564Z,79.13
2017-07-01T04:30:12.966Z,82.06
2017-07-01T04:32:39.384Z,79.38
2017-07-01T04:35:05.815Z,80.02
2017-07-01T04:37:32.201Z,77.53
2017-07-01T04:39:58.598Z,78.75
2017-07-01T04:42:35.711Z,80.14
2017-07-01T04:45:08.045Z,78.57
2017-07-01T04:47:34.458Z,78.45
2017-07-01T04:50:06.728Z,78.51
2017-07-01T04:52:46.660Z,80.24
2017-07-01T04:55:16.952Z,79.79
2017-07-01T04:57:44.359Z,79.78
2017-07-01T05:00:11.744Z,79.42
2017-07-01T05:02:38.151Z,79.48
2017-07-01T05:05:04.574Z,78.74
2017-07-01T05:07:59.721Z,80.25
2017-07-01T05:10:44.607Z,81.17
2017-07-01T05:13:11.032Z,80.62
2017-07-01T05:15:38.277Z,81.26
2017-07-01T05:18:04.655Z,80.58
2017-07-01T05:20:51.618Z,79.92
2017-07-01T05:23:33.764Z,79.18
2017-07-01T05:26:06.051Z,81.95
2017-07-01T05:28:43.500Z,81.57
2017-07-01T05:31:27.754Z,80.04
2017-07-01T05:34:26.882Z,80.67
2017-07-01T05:36:53.289Z,82.15
2017-07-01T05:39:20.473Z,81.02
2017-07-01T05:42:05.615Z,81.07
2017-07-01T05:44:47.904Z,80.30
2017-07-01T05:47:16.271Z,80.79
2017-07-01T05:49:42.709Z,80.51
2017-07-01T05:52:09.141Z,81.28
2017-07-01T05:54:35.549Z,82.34
2017-07-01T05:57:01.954Z,81.98
2017-07-01T05:59:50.003Z,81.41
2017-07-01T06:02:26.272Z,82.33
2017-07-01T06:04:52.757Z,82.65
2017-07-01T06:07:19.170Z,81.58
2017-07-01T06:23:19.687Z,82.61
2017-07-01T06:25:53.816Z,83.99
2017-07-01T06:28:32.997Z,83.38
2017-07-01T06:31:21.140Z,80.66
2017-07-01T06:33:47.554Z,82.56
2017-07-01T06:36:25.750Z,81.76
2017-07-01T06:38:55.225Z,81.60
2017-07-01T06:41:43.337Z,81.29
2017-07-01T06:44:18.512Z,81.34
2017-07-01T06:46:45.701Z,82.21
2017-07-01T06:49:16.054Z,83.40
2017-07-01T06:51:42.479Z,84.88
2017-07-01T06:54:14.795Z,81.75
2017-07-01T06:56:41.187Z,83.23
2017-07-01T06:59:07.582Z,83.41
2017-07-01T07:01:34.036Z,82.06
2017-07-01T07:04:00.487Z,83.49
2017-07-01T07:06:26.920Z,82.91
2017-07-01T07:08:53.315Z,80.89
2017-07-01T07:11:19.747Z,85.62
2017-07-01T07:13:46.147Z,82.98
2017-07-01T07:16:12.593Z,81.87
2017-07-01T07:18:39.034Z,81.96
2017-07-01T07:21:05.478Z,82.28
2017-07-01T07:23:31.905Z,82.55
2017-07-01T07:25:58.335Z,81.10
2017-07-01T07:28:25.409Z,82.23
2017-07-01T07:30:51.831Z,82.06
2017-07-01T07:33:18.284Z,80.63
2017-07-01T07:35:44.728Z,81.86
2017-07-01T07:38:11.565Z,82.23
2017-07-01T07:40:37.940Z,82.69
2017-07-01T07:43:04.304Z,81.37
2017-07-01T07:45:30.683Z,83.91
2017-07-01T07:47:57.049Z,81.92
2017-07-01T07:50:23.392Z,82.07
2017-07-01T07:52:49.831Z,80.80
2017-07-01T07:55:16.179Z,83.59
2017-07-01T07:57:42.551Z,83.97
2017-07-01T08:00:08.919Z,83.59
2017-07-01T08:02:35.272Z,83.09
2017-07-01T08:05:01.606Z,83.57
2017-07-01T08:07:27.954Z,82.93
2017-07-01T08:09:54.294Z,82.04
2017-07-01T08:12:20.658Z,81.60
2017-07-01T08:14:47.039Z,81.47
2017-07-01T08:17:13.376Z,82.78
2017-07-01T08:19:39.722Z,81.50
2017-07-01T08:22:06.063Z,82.57
2017-07-01T08:24:32.440Z,82.48
2017-07-01T08:26:58.780Z,84.11
2017-07-01T08:29:25.181Z,82.51
2017-07-01T08:31:51.544Z,80.67
2017-07-01T08:34:17.913Z,84.36
2017-07-01T08:36:44.316Z,82.99
2017-07-01T08:39:10.742Z,81.17
2017-07-01T08:41:37.124Z,82.12
2017-07-01T08:44:03.478Z,82.84
2017-07-01T08:46:29.874Z,82.57
2017-07-01T08:48:56.250Z,81.52
2017-07-01T08:51:22.660Z,81.27
2017-07-01T08:53:49.016Z,81.73
2017-07-01T08:56:15.368Z,80.95
2017-07-01T08:58:41.726Z,80.56
2017-07-01T09:01:08.075Z,81.47
2017-07-01T09:06:34.980Z,79.71
2017-07-01T09:09:01.350Z,79.91
2017-07-01T09:11:27.690Z,79.98
2017-07-01T09:13:54.122Z,79.91
2017-07-01T09:16:20.460Z,81.16
2017-07-01T09:18:46.797Z,80.93
2017-07-01T09:21:13.164Z,81.86
2017-07-01T09:23:39.518Z,81.26
2017-07-01T09:26:05.847Z,80.32
2017-07-01T09:28:32.215Z,80.39
2017-07-01T09:30:58.608Z,79.89
2017-07-01T09:33:24.962Z,79.00
2017-07-01T09:35:51.320Z,80.55
2017-07-01T09:38:17.651Z,79.04
2017-07-01T09:40:44.038Z,80.30
2017-07-01T09:43:10.393Z,80.15
2017-07-01T09:45:36.810Z,79.42
2017-07-01T09:48:03.162Z,79.87
2017-07-01T09:50:29.554Z,80.50
2017-07-01T09:52:55.942Z,81.59
2017-07-01T09:55:22.338Z,79.49
2017-07-01T09:57:48.780Z,81.32
2017-07-01T10:00:15.150Z,81.73
2017-07-01T10:02:41.495Z,81.71
2017-07-01T10:05:07.861Z,81.36
2017-07-01T10:07:34.228Z,83.12
2017-07-01T10:10:00.618Z,83.80
2017-07-01T10:12:26.975Z,82.13
2017-07-01T10:14:53.362Z,85.14
2017-07-01T10:17:19.730Z,83.52
2017-07-01T10:19:46.090Z,81.44
2017-07-01T10:22:12.476Z,83.89
2017-07-01T10:24:38.836Z,80.60
2017-07-01T10:27:05.218Z,80.14
2017-07-01T10:29:31.573Z,81.12
2017-07-01T10:31:57.918Z,81.43
2017-07-01T10:34:24.297Z,84.00
2017-07-01T10:36:50.696Z,85.22
2017-07-01T10:39:17.100Z,82.83
2017-07-01T10:41:43.480Z,81.38
2017-07-01T10:44:10.039Z,82.39
2017-07-01T10:49:41.088Z,82.33
2017-07-01T10:52:10.921Z,82.27
2017-07-01T10:54:44.191Z,83.54
2017-07-01T10:57:17.845Z,81.69
2017-07-01T10:59:46.305Z,82.10
2017-07-01T11:15:35.686Z,83.13
2017-07-01T11:18:28.409Z,84.95
2017-07-01T11:20:57.400Z,84.35
2017-07-01T11:23:29.087Z,83.74
2017-07-01T11:34:24.501Z,82.68
2017-07-01T11:36:54.328Z,82.89
2017-07-01T11:39:30.325Z,84.35
2017-07-01T11:41:59.851Z,84.14
2017-07-01T11:44:32.941Z,82.96
2017-07-01T11:47:10.628Z,83.56
2017-07-01T11:49:39.783Z,84.77
2017-07-01T11:52:13.497Z,82.60
2017-07-01T11:54:44.022Z,82.69
2017-07-01T12:00:06.776Z,84.35
2017-07-01T12:02:54.582Z,83.92
2017-07-01T12:05:20.966Z,84.44
2017-07-01T12:07:47.368Z,83.19
2017-07-01T12:10:13.727Z,81.96
2017-07-01T12:12:40.094Z,82.28
2017-07-01T12:15:06.481Z,83.05
2017-07-01T12:17:32.839Z,81.72
2017-07-01T12:19:59.209Z,81.84
2017-07-01T12:22:25.640Z,82.38
2017-07-01T12:24:52.024Z,83.25
2017-07-01T12:27:18.390Z,83.09
2017-07-01T12:29:44.839Z,82.03
2017-07-01T12:32:11.262Z,82.66
2017-07-01T12:34:37.681Z,81.32
2017-07-01T12:37:04.085Z,81.41
2017-07-01T12:39:30.460Z,81.48
2017-07-01T12:41:56.860Z,81.48
2017-07-01T12:44:23.262Z,81.21
2017-07-01T12:46:49.656Z,81.58
2017-07-01T12:49:16.112Z,83.54
2017-07-01T12:51:42.526Z,82.36
2017-07-01T12:54:08.991Z,82.95
2017-07-01T12:56:35.424Z,81.68
2017-07-01T12:59:01.835Z,81.99
2017-07-01T13:01:28.336Z,81.90
2017-07-01T13:03:54.771Z,81.80
2017-07-01T13:06:21.148Z,82.04
2017-07-01T13:08:47.548Z,82.10
2017-07-01T13:11:13.964Z,82.45
2017-07-01T13:13:40.351Z,82.43
2017-07-01T13:16:06.718Z,82.42
2017-07-01T13:18:33.121Z,82.49
2017-07-01T13:20:59.476Z,83.16
2017-07-01T13:23:25.826Z,81.98
2017-07-01T13:25:52.211Z,83.18
2017-07-01T13:28:18.598Z,83.06
2017-07-01T13:30:44.997Z,83.35
2017-07-01T13:33:11.375Z,84.83
2017-07-01T13:35:37.807Z,84.60
2017-07-01T13:38:04.201Z,85.26
2017-07-01T13:40:30.570Z,85.30
2017-07-01T13:42:56.963Z,84.72
2017-07-01T13:45:23.405Z,84.72
2017-07-01T13:47:49.801Z,84.01
2017-07-01T13:50:16.187Z,83.96
2017-07-01T13:52:42.540Z,83.47
2017-07-01T13:55:08.915Z,84.81
2017-07-01T13:57:35.303Z,83.88
2017-07-01T14:00:01.677Z,84.78
2017-07-01T14:02:28.137Z,84.30
2017-07-01T14:04:54.689Z,84.10
2017-07-01T14:07:21.339Z,83.42
2017-07-01T14:09:47.847Z,86.07
2017-07-01T14:12:14.253Z,83.82
2017-07-01T14:14:40.701Z,85.25
2017-07-01T14:17:07.143Z,85.83
2017-07-01T14:19:36.053Z,87.72
2017-07-01T14:22:02.448Z,86.31
2017-07-01T14:24:28.882Z,85.70
2017-07-01T14:26:55.293Z,83.95
2017-07-01T14:29:21.668Z,85.84
2017-07-01T14:31:48.074Z,84.52
2017-07-01T14:34:14.451Z,83.90
2017-07-01T14:36:40.801Z,85.07
2017-07-01T14:39:07.152Z,85.84
2017-07-01T14:41:33.499Z,85.87
2017-07-01T14:43:59.878Z,86.71
2017-07-01T14:46:26.377Z,85.09
2017-07-01T14:48:52.736Z,85.78
2017-07-01T14:51:19.139Z,86.69
2017-07-01T14:53:45.631Z,85.00
2017-07-01T14:56:12.006Z,86.50
2017-07-01T14:58:38.453Z,84.90
2017-07-01T15:01:04.805Z,85.06
2017-07-01T15:03:31.866Z,87.49
2017-07-01T15:05:58.372Z,87.80
2017-07-01T15:08:24.775Z,86.48
2017-07-01T15:10:51.119Z,87.11
2017-07-01T15:13:17.504Z,84.91
2017-07-01T15:15:47.922Z,86.04
2017-07-01T15:18:14.347Z,87.77
2017-07-01T15:20:40.721Z,88.04
2017-07-01T15:23:07.393Z,88.79
2017-07-01T15:25:33.740Z,87.74
2017-07-01T15:28:00.585Z,85.98
2017-07-01T15:30:34.742Z,87.82
2017-07-01T15:33:01.157Z,86.63
2017-07-01T15:35:27.524Z,88.68
2017-07-01T15:37:54.464Z,87.64
2017-07-01T15:40:20.819Z,88.15
2017-07-01T15:42:47.170Z,87.37
2017-07-01T15:45:13.573Z,87.23
2017-07-01T15:47:39.952Z,86.90
2017-07-01T15:50:06.310Z,87.80
2017-07-01T15:52:32.647Z,87.07
2017-07-01T15:54:59.052Z,86.44
2017-07-01T15:57:25.926Z,86.82
2017-07-01T15:59:52.670Z,87.41
2017-07-01T16:02:19.073Z,87.30
2017-07-01T16:04:45.421Z,86.91
2017-07-01T16:07:11.796Z,87.55
2017-07-01T16:09:38.236Z,87.06
2017-07-01T16:12:06.648Z,85.96
2017-07-01T16:14:33.111Z,86.96
2017-07-01T16:16:59.519Z,85.96
2017-07-01T16:19:26.039Z,87.83
2017-07-01T16:21:52.438Z,86.46
2017-07-01T16:24:18.876Z,87.75
2017-07-01T16:26:45.268Z,87.47
2017-07-01T16:29:11.704Z,87.26
2017-07-01T16:31:38.092Z,86.70
2017-07-01T16:34:04.428Z,87.49
2017-07-01T16:36:30.774Z,87.31
2017-07-01T16:38:57.237Z,88.06
2017-07-01T16:41:23.588Z,87.04
2017-07-01T16:43:49.934Z,87.63
2017-07-01T16:46:16.496Z,88.31
2017-07-01T16:48:42.867Z,87.69
2017-07-01T16:51:09.204Z,88.15
2017-07-01T16:53:35.550Z,87.02
2017-07-01T16:56:01.989Z,88.19
2017-07-01T16:58:28.373Z,88.60
2017-07-01T17:00:54.724Z,87.57
2017-07-01T17:03:21.057Z,87.43
2017-07-01T17:05:47.434Z,86.63
2017-07-01T17:08:13.790Z,88.99
2017-07-01T17:10:40.133Z,87.91
2017-07-01T17:13:06.482Z,87.48
2017-07-01T17:15:33.572Z,87.79
2017-07-01T17:17:59.992Z,86.81
2017-07-01T17:20:26.343Z,87.76
2017-07-01T17:22:52.694Z,87.48
2017-07-01T17:25:19.029Z,87.27
2017-07-01T17:27:45.380Z,86.50
2017-07-01T17:30:11.724Z,85.51
2017-07-01T17:32:38.066Z,86.75
2017-07-01T17:35:04.418Z,88.74
2017-07-01T17:37:30.762Z,85.33
2017-07-01T17:39:57.095Z,83.66
2017-07-01T17:42:23.464Z,83.83
2017-07-01T17:44:49.792Z,83.46
2017-07-01T17:47:16.177Z,83.67
2017-07-01T17:49:42.559Z,83.62
2017-07-01T17:52:08.896Z,83.56
2017-07-01T17:54:35.249Z,83.51
2017-07-01T17:57:01.602Z,84.49
2017-07-01T17:59:27.935Z,84.58
2017-07-01T18:01:54.283Z,84.21
2017-07-01T18:04:20.613Z,84.13
2017-07-01T18:06:46.965Z,85.51
2017-07-01T18:09:13.347Z,83.40
2017-07-01T18:11:39.712Z,84.24
2017-07-01T18:14:06.091Z,83.76
2017-07-01T18:16:32.446Z,84.13
2017-07-01T18:18:58.794Z,84.38
2017-07-01T18:21:25.139Z,85.06
2017-07-01T18:23:51.479Z,84.11
2017-07-01T18:26:17.796Z,86.65
2017-07-01T18:28:44.107Z,87.67
2017-07-01T18:31:10.474Z,84.47
2017-07-01T18:33:36.828Z,86.45
2017-07-01T18:36:03.210Z,87.40
2017-07-01T18:38:29.569Z,86.86
2017-07-01T18:40:55.931Z,84.65
2017-07-01T18:43:22.280Z,83.73
2017-07-01T18:45:48.598Z,84.11
2017-07-01T18:48:14.973Z,84.28
2017-07-01T18:50:41.803Z,84.41
2017-07-01T18:53:08.175Z,87.02
2017-07-01T18:55:34.530Z,85.17
2017-07-01T18:58:00.851Z,86.98
2017-07-01T19:00:27.214Z,84.08
2017-07-01T19:02:53.578Z,84.05
2017-07-01T19:05:19.933Z,87.42
2017-07-01T19:07:46.274Z,84.07
2017-07-01T19:10:12.635Z,83.99
2017-07-01T19:12:38.971Z,84.33
2017-07-01T19:15:05.349Z,87.32
2017-07-01T19:17:31.707Z,84.61
2017-07-01T19:19:58.070Z,84.39
2017-07-01T19:22:24.930Z,83.94
2017-07-01T19:24:51.326Z,86.79
2017-07-01T19:27:17.761Z,84.53
2017-07-01T19:29:44.440Z,84.28
2017-07-01T19:32:10.852Z,86.81
2017-07-01T19:34:37.649Z,84.72
2017-07-01T19:37:04.187Z,84.83
2017-07-01T19:39:30.772Z,83.71
2017-07-01T19:41:57.145Z,86.21
2017-07-01T19:44:23.646Z,87.15
2017-07-01T19:46:50.449Z,85.27
2017-07-01T19:49:16.814Z,86.05
2017-07-01T19:51:43.221Z,87.86
2017-07-01T19:54:09.582Z,87.90
2017-07-01T19:56:35.920Z,88.59
2017-07-01T19:59:02.315Z,89.78
2017-07-01T20:01:28.655Z,89.93
2017-07-01T20:03:54.993Z,87.42
2017-07-01T20:06:21.463Z,88.61
2017-07-01T20:08:47.839Z,88.82
2017-07-01T20:11:14.232Z,89.13
2017-07-01T20:13:40.637Z,87.42
2017-07-01T20:16:06.989Z,86.13
2017-07-01T20:18:33.370Z,87.54
2017-07-01T20:20:59.762Z,86.36
2017-07-01T20:23:26.405Z,85.92
2017-07-01T20:25:52.806Z,89.04
2017-07-01T20:28:19.185Z,88.02
2017-07-01T20:30:45.558Z,88.43
2017-07-01T20:33:12.155Z,85.36
2017-07-01T20:35:38.590Z,86.60
2017-07-01T20:38:04.977Z,87.94
2017-07-01T20:40:31.483Z,85.90
2017-07-01T20:42:57.873Z,86.30
2017-07-01T20:45:24.220Z,86.00
2017-07-01T20:47:51.224Z,86.56
2017-07-01T20:50:17.571Z,90.02
2017-07-01T20:52:43.985Z,86.35
2017-07-01T20:55:10.377Z,86.68
2017-07-01T20:57:36.763Z,86.46
2017-07-01T21:00:03.254Z,87.80
2017-07-01T21:02:29.612Z,86.42
2017-07-01T21:04:56.055Z,87.36
2017-07-01T21:07:22.461Z,87.79
2017-07-01T21:09:49.646Z,87.63
2017-07-01T21:12:16.039Z,87.58
2017-07-01T21:14:42.394Z,89.14
2017-07-01T21:17:08.817Z,90.44
2017-07-01T21:19:35.208Z,87.08
2017-07-01T21:22:01.589Z,86.10
2017-07-01T21:24:27.950Z,89.95
2017-07-01T21:26:54.303Z,89.89
2017-07-01T21:29:20.691Z,90.01
2017-07-01T21:31:47.025Z,87.37
2017-07-01T21:34:13.357Z,90.86
2017-07-01T21:36:39.791Z,89.13
2017-07-01T21:39:06.598Z,90.86
2017-07-01T21:41:33.101Z,88.55
2017-07-01T21:43:59.425Z,87.79
2017-07-01T21:46:25.774Z,87.55
2017-07-01T21:48:52.223Z,86.06
2017-07-01T21:51:18.586Z,86.82
2017-07-01T21:53:45.049Z,86.51
2017-07-01T21:56:11.402Z,85.11
2017-07-01T21:58:37.751Z,85.50
2017-07-01T22:01:04.240Z,84.82
2017-07-01T22:03:30.608Z,84.91
2017-07-01T22:05:57.155Z,84.28
2017-07-01T22:08:23.534Z,86.28
2017-07-01T22:10:50.311Z,85.86
2017-07-01T22:13:23.521Z,86.25
2017-07-01T22:15:49.932Z,85.61
2017-07-01T22:18:16.273Z,84.86
2017-07-01T22:20:42.788Z,85.41
2017-07-01T22:23:09.140Z,85.63
2017-07-01T22:25:35.516Z,83.91
2017-07-01T22:28:01.913Z,83.84
2017-07-01T22:30:28.326Z,84.47
2017-07-01T22:32:54.698Z,85.26
2017-07-01T22:35:21.141Z,82.90
2017-07-01T22:37:47.584Z,85.90
2017-07-01T22:40:13.946Z,86.84
2017-07-01T22:42:40.404Z,86.71
2017-07-01T22:45:06.853Z,84.53
2017-07-01T22:47:33.286Z,85.87
2017-07-01T22:49:59.856Z,86.23
2017-07-01T22:52:26.236Z,85.85
2017-07-01T22:54:53.673Z,84.31
2017-07-01T22:57:20.134Z,83.48
2017-07-01T22:59:46.561Z,83.66
2017-07-01T23:02:12.925Z,85.82
2017-07-01T23:04:39.290Z,85.41
2017-07-01T23:07:05.920Z,84.07
2017-07-01T23:09:33.164Z,82.54
2017-07-01T23:11:59.763Z,84.61
2017-07-01T23:14:26.611Z,83.62
2017-07-01T23:16:52.996Z,84.11
2017-07-01T23:19:19.378Z,85.24
2017-07-01T23:21:45.722Z,84.50
2017-07-01T23:24:12.138Z,85.17
2017-07-01T23:26:38.515Z,83.19
2017-07-01T23:29:04.894Z,84.13
2017-07-01T23:31:31.325Z,85.25
2017-07-01T23:33:57.698Z,82.30
2017-07-01T23:36:24.028Z,84.72
2017-07-01T23:38:50.585Z,83.62
2017-07-01T23:41:16.988Z,83.09
2017-07-01T23:44:02.748Z,82.82
2017-07-01T23:46:29.176Z,81.99
2017-07-01T23:48:55.553Z,83.71
2017-07-01T23:51:21.957Z,81.74
2017-07-01T23:53:48.359Z,83.65
2017-07-01T23:56:14.726Z,84.74
2017-07-01T23:58:41.128Z,83.79
